sensor_id;sensor_type;location;lat;lon;timestamp;temperature;humidity
18898;DHT22;9581;49.484;8.556;2023-07-16T00:00:22;20.40;99.90
18898;DHT22;9581;49.484;8.556;2023-07-16T00:02:48;20.40;99.90
18898;DHT22;9581;49.484;8.556;2023-07-16T00:05:15;20.40;99.90
18898;DHT22;9581;49.484;8.556;2023-07-16T00:07:42;20.40;99.90
18898;DHT22;9581;49.484;8.556;2023-07-16T00:10:09;20.40;99.90
18898;DHT22;9581;49.484;8.556;2023-07-16T00:12:37;20.50;99.90
18898;DHT22;9581;49.484;8.556;2023-07-16T00:15:05;20.50;99.90
18898;DHT22;9581;49.484;8.556;2023-07-16T00:17:34;20.50;99.90
18898;DHT22;9581;49.484;8.556;2023-07-16T00:20:01;20.50;99.90
18898;DHT22;9581;49.484;8.556;2023-07-16T00:22:28;20.50;99.90
18898;DHT22;9581;49.484;8.556;2023-07-16T00:24:55;20.70;99.90
18898;DHT22;9581;49.484;8.556;2023-07-16T00:27:21;20.60;99.90
18898;DHT22;9581;49.484;8.556;2023-07-16T00:29:48;20.80;99.90
18898;DHT22;9581;49.484;8.556;2023-07-16T00:32:15;20.90;99.90
18898;DHT22;9581;49.484;8.556;2023-07-16T00:34:43;20.80;99.90
18898;DHT22;9581;49.484;8.556;2023-07-16T00:37:10;20.90;99.90
18898;DHT22;9581;49.484;8.556;2023-07-16T00:39:36;20.90;99.90
18898;DHT22;9581;49.484;8.556;2023-07-16T00:42:03;21.10;99.90
18898;DHT22;9581;49.484;8.556;2023-07-16T00:44:30;21.20;99.90
18898;DHT22;9581;49.484;8.556;2023-07-16T00:46:57;20.90;99.90
18898;DHT22;9581;49.484;8.556;2023-07-16T00:49:24;20.70;99.90
18898;DHT22;9581;49.484;8.556;2023-07-16T00:51:52;20.80;99.90
18898;DHT22;9581;49.484;8.556;2023-07-16T00:54:19;20.70;99.90
18898;DHT22;9581;49.484;8.556;2023-07-16T00:56:46;20.70;99.90
18898;DHT22;9581;49.484;8.556;2023-07-16T00:59:13;20.40;99.90
18898;DHT22;9581;49.484;8.556;2023-07-16T01:01:40;20.60;99.90
18898;DHT22;9581;49.484;8.556;2023-07-16T01:04:07;20.90;99.90
18898;DHT22;9581;49.484;8.556;2023-07-16T01:06:35;20.90;99.90
18898;DHT22;9581;49.484;8.556;2023-07-16T01:09:11;20.60;99.90
18898;DHT22;9581;49.484;8.556;2023-07-16T01:11:42;20.70;99.90
18898;DHT22;9581;49.484;8.556;2023-07-16T01:14:10;20.70;99.90
18898;DHT22;9581;49.484;8.556;2023-07-16T01:16:37;20.90;99.90
18898;DHT22;9581;49.484;8.556;2023-07-16T01:19:04;20.90;99.90
18898;DHT22;9581;49.484;8.556;2023-07-16T01:21:34;20.70;99.90
18898;DHT22;9581;49.484;8.556;2023-07-16T01:27:21;20.50;99.90
18898;DHT22;9581;49.484;8.556;2023-07-16T01:29:58;20.70;99.90
18898;DHT22;9581;49.484;8.556;2023-07-16T01:32:29;20.30;99.90
18898;DHT22;9581;49.484;8.556;2023-07-16T01:34:57;20.20;99.90
18898;DHT22;9581;49.484;8.556;2023-07-16T01:37:24;20.20;99.90
18898;DHT22;9581;49.484;8.556;2023-07-16T01:39:51;20.20;99.90
18898;DHT22;9581;49.484;8.556;2023-07-16T01:42:18;20.20;99.90
18898;DHT22;9581;49.484;8.556;2023-07-16T01:44:45;20.50;99.90
18898;DHT22;9581;49.484;8.556;2023-07-16T01:47:16;20.50;99.90
18898;DHT22;9581;49.484;8.556;2023-07-16T01:49:46;20.60;99.90
18898;DHT22;9581;49.484;8.556;2023-07-16T01:52:13;20.60;99.90
18898;DHT22;9581;49.484;8.556;2023-07-16T01:54:39;20.50;99.90
18898;DHT22;9581;49.484;8.556;2023-07-16T01:57:06;20.30;99.90
18898;DHT22;9581;49.484;8.556;2023-07-16T01:59:33;20.40;99.90
18898;DHT22;9581;49.484;8.556;2023-07-16T02:02:00;20.50;99.90
18898;DHT22;9581;49.484;8.556;2023-07-16T02:04:28;20.40;99.90
18898;DHT22;9581;49.484;8.556;2023-07-16T02:06:55;20.40;99.90
18898;DHT22;9581;49.484;8.556;2023-07-16T02:09:22;20.40;99.90
18898;DHT22;9581;49.484;8.556;2023-07-16T02:11:48;20.40;99.90
18898;DHT22;9581;49.484;8.556;2023-07-16T02:14:15;20.30;99.90
18898;DHT22;9581;49.484;8.556;2023-07-16T02:16:42;20.20;99.90
18898;DHT22;9581;49.484;8.556;2023-07-16T02:19:09;20.00;99.90
18898;DHT22;9581;49.484;8.556;2023-07-16T02:21:37;20.00;99.90
18898;DHT22;9581;49.484;8.556;2023-07-16T02:24:05;20.20;99.90
18898;DHT22;9581;49.484;8.556;2023-07-16T02:26:32;20.20;99.90
18898;DHT22;9581;49.484;8.556;2023-07-16T02:28:59;20.20;99.90
18898;DHT22;9581;49.484;8.556;2023-07-16T02:31:25;20.20;99.90
18898;DHT22;9581;49.484;8.556;2023-07-16T02:33:52;20.30;99.90
18898;DHT22;9581;49.484;8.556;2023-07-16T02:36:19;20.40;99.90
18898;DHT22;9581;49.484;8.556;2023-07-16T02:38:47;20.30;99.90
18898;DHT22;9581;49.484;8.556;2023-07-16T02:41:14;20.30;99.90
18898;DHT22;9581;49.484;8.556;2023-07-16T02:43:41;20.30;99.90
18898;DHT22;9581;49.484;8.556;2023-07-16T02:46:07;20.20;99.90
18898;DHT22;9581;49.484;8.556;2023-07-16T02:48:34;20.20;99.90
18898;DHT22;9581;49.484;8.556;2023-07-16T02:51:01;20.30;99.90
18898;DHT22;9581;49.484;8.556;2023-07-16T02:53:28;20.20;99.90
18898;DHT22;9581;49.484;8.556;2023-07-16T02:55:56;20.10;99.90
18898;DHT22;9581;49.484;8.556;2023-07-16T02:58:23;20.20;99.90
18898;DHT22;9581;49.484;8.556;2023-07-16T03:00:50;20.10;99.90
18898;DHT22;9581;49.484;8.556;2023-07-16T03:03:16;19.90;99.90
18898;DHT22;9581;49.484;8.556;2023-07-16T03:05:43;19.90;99.90
18898;DHT22;9581;49.484;8.556;2023-07-16T03:08:10;19.30;99.90
18898;DHT22;9581;49.484;8.556;2023-07-16T03:10:37;19.70;99.90
18898;DHT22;9581;49.484;8.556;2023-07-16T03:13:05;19.60;99.90
18898;DHT22;9581;49.484;8.556;2023-07-16T03:15:32;19.80;99.90
18898;DHT22;9581;49.484;8.556;2023-07-16T03:17:58;19.80;99.90
18898;DHT22;9581;49.484;8.556;2023-07-16T03:20:25;19.40;99.90
18898;DHT22;9581;49.484;8.556;2023-07-16T03:22:52;19.60;99.90
18898;DHT22;9581;49.484;8.556;2023-07-16T03:25:19;19.30;99.90
18898;DHT22;9581;49.484;8.556;2023-07-16T03:27:46;19.10;99.90
18898;DHT22;9581;49.484;8.556;2023-07-16T03:30:14;19.20;99.90
18898;DHT22;9581;49.484;8.556;2023-07-16T03:32:41;19.30;99.90
18898;DHT22;9581;49.484;8.556;2023-07-16T03:35:08;19.50;99.90
18898;DHT22;9581;49.484;8.556;2023-07-16T03:37:35;19.40;99.90
18898;DHT22;9581;49.484;8.556;2023-07-16T03:40:13;19.50;99.90
18898;DHT22;9581;49.484;8.556;2023-07-16T03:42:40;19.60;99.90
18898;DHT22;9581;49.484;8.556;2023-07-16T03:45:08;19.80;99.90
18898;DHT22;9581;49.484;8.556;2023-07-16T03:47:36;19.90;99.90
18898;DHT22;9581;49.484;8.556;2023-07-16T03:50:03;19.80;99.90
18898;DHT22;9581;49.484;8.556;2023-07-16T03:52:30;19.60;99.90
18898;DHT22;9581;49.484;8.556;2023-07-16T03:54:57;19.20;99.90
18898;DHT22;9581;49.484;8.556;2023-07-16T03:57:24;19.40;99.90
18898;DHT22;9581;49.484;8.556;2023-07-16T03:59:51;19.20;99.90
18898;DHT22;9581;49.484;8.556;2023-07-16T04:02:18;19.10;99.90
18898;DHT22;9581;49.484;8.556;2023-07-16T04:04:46;19.30;99.90
18898;DHT22;9581;49.484;8.556;2023-07-16T04:07:13;19.50;99.90
18898;DHT22;9581;49.484;8.556;2023-07-16T04:09:40;19.40;99.90
18898;DHT22;9581;49.484;8.556;2023-07-16T04:12:07;19.40;99.90
18898;DHT22;9581;49.484;8.556;2023-07-16T04:14:34;19.00;99.90
18898;DHT22;9581;49.484;8.556;2023-07-16T04:17:00;19.10;99.90
18898;DHT22;9581;49.484;8.556;2023-07-16T04:19:28;18.80;99.90
18898;DHT22;9581;49.484;8.556;2023-07-16T04:21:56;18.70;99.90
18898;DHT22;9581;49.484;8.556;2023-07-16T04:24:23;19.10;99.90
18898;DHT22;9581;49.484;8.556;2023-07-16T04:26:52;19.40;99.90
18898;DHT22;9581;49.484;8.556;2023-07-16T04:29:19;19.50;99.90
18898;DHT22;9581;49.484;8.556;2023-07-16T04:31:46;19.40;99.90
18898;DHT22;9581;49.484;8.556;2023-07-16T04:34:12;19.60;99.90
18898;DHT22;9581;49.484;8.556;2023-07-16T04:36:39;19.80;99.90
18898;DHT22;9581;49.484;8.556;2023-07-16T04:39:07;19.40;99.90
18898;DHT22;9581;49.484;8.556;2023-07-16T04:41:34;19.50;99.90
18898;DHT22;9581;49.484;8.556;2023-07-16T04:44:01;19.60;99.90
18898;DHT22;9581;49.484;8.556;2023-07-16T04:46:28;19.60;99.90
18898;DHT22;9581;49.484;8.556;2023-07-16T04:48:55;19.80;99.90
18898;DHT22;9581;49.484;8.556;2023-07-16T04:51:22;19.80;99.90
18898;DHT22;9581;49.484;8.556;2023-07-16T04:53:50;19.40;99.90
18898;DHT22;9581;49.484;8.556;2023-07-16T04:56:18;19.30;99.90
18898;DHT22;9581;49.484;8.556;2023-07-16T04:58:45;19.50;99.90
18898;DHT22;9581;49.484;8.556;2023-07-16T05:01:11;19.10;99.90
18898;DHT22;9581;49.484;8.556;2023-07-16T05:03:38;19.10;99.90
18898;DHT22;9581;49.484;8.556;2023-07-16T05:06:05;19.10;99.90
18898;DHT22;9581;49.484;8.556;2023-07-16T05:08:32;19.30;99.90
18898;DHT22;9581;49.484;8.556;2023-07-16T05:10:59;19.00;99.90
18898;DHT22;9581;49.484;8.556;2023-07-16T05:13:27;19.30;99.90
18898;DHT22;9581;49.484;8.556;2023-07-16T05:15:54;19.50;99.90
18898;DHT22;9581;49.484;8.556;2023-07-16T05:18:20;19.40;99.90
18898;DHT22;9581;49.484;8.556;2023-07-16T05:20:48;19.40;99.90
18898;DHT22;9581;49.484;8.556;2023-07-16T05:23:14;19.40;99.90
18898;DHT22;9581;49.484;8.556;2023-07-16T05:25:45;19.50;99.90
18898;DHT22;9581;49.484;8.556;2023-07-16T05:28:13;19.00;99.90
18898;DHT22;9581;49.484;8.556;2023-07-16T05:30:41;19.40;99.90
18898;DHT22;9581;49.484;8.556;2023-07-16T05:33:08;19.70;99.90
18898;DHT22;9581;49.484;8.556;2023-07-16T05:35:35;19.80;99.90
18898;DHT22;9581;49.484;8.556;2023-07-16T05:38:02;19.80;99.90
18898;DHT22;9581;49.484;8.556;2023-07-16T05:40:29;19.60;99.90
18898;DHT22;9581;49.484;8.556;2023-07-16T05:42:55;19.70;99.90
18898;DHT22;9581;49.484;8.556;2023-07-16T05:45:22;19.40;99.90
18898;DHT22;9581;49.484;8.556;2023-07-16T05:47:51;19.70;99.90
18898;DHT22;9581;49.484;8.556;2023-07-16T05:50:17;19.70;99.90
18898;DHT22;9581;49.484;8.556;2023-07-16T05:52:44;19.80;99.90
18898;DHT22;9581;49.484;8.556;2023-07-16T05:55:13;19.70;99.90
18898;DHT22;9581;49.484;8.556;2023-07-16T05:57:40;19.50;99.90
18898;DHT22;9581;49.484;8.556;2023-07-16T06:00:08;19.80;99.90
18898;DHT22;9581;49.484;8.556;2023-07-16T06:02:35;19.40;99.90
18898;DHT22;9581;49.484;8.556;2023-07-16T06:05:04;19.50;99.90
18898;DHT22;9581;49.484;8.556;2023-07-16T06:07:31;19.60;99.90
18898;DHT22;9581;49.484;8.556;2023-07-16T06:09:58;19.80;99.90
18898;DHT22;9581;49.484;8.556;2023-07-16T06:12:25;20.10;99.90
18898;DHT22;9581;49.484;8.556;2023-07-16T06:14:52;20.00;99.90
18898;DHT22;9581;49.484;8.556;2023-07-16T06:17:19;20.00;99.90
18898;DHT22;9581;49.484;8.556;2023-07-16T06:19:46;20.00;99.90
18898;DHT22;9581;49.484;8.556;2023-07-16T06:22:15;20.00;99.90
18898;DHT22;9581;49.484;8.556;2023-07-16T06:24:41;20.30;99.90
18898;DHT22;9581;49.484;8.556;2023-07-16T06:27:08;20.30;99.90
18898;DHT22;9581;49.484;8.556;2023-07-16T06:29:35;20.50;99.90
18898;DHT22;9581;49.484;8.556;2023-07-16T06:32:02;20.50;99.90
18898;DHT22;9581;49.484;8.556;2023-07-16T06:34:29;20.60;99.90
18898;DHT22;9581;49.484;8.556;2023-07-16T06:36:56;20.50;99.90
18898;DHT22;9581;49.484;8.556;2023-07-16T06:39:24;20.70;99.90
18898;DHT22;9581;49.484;8.556;2023-07-16T06:41:51;20.80;99.90
18898;DHT22;9581;49.484;8.556;2023-07-16T06:44:17;20.80;99.90
18898;DHT22;9581;49.484;8.556;2023-07-16T06:46:44;20.90;99.90
18898;DHT22;9581;49.484;8.556;2023-07-16T06:49:11;20.90;99.90
18898;DHT22;9581;49.484;8.556;2023-07-16T06:51:38;20.90;99.90
18898;DHT22;9581;49.484;8.556;2023-07-16T06:54:04;20.70;99.90
18898;DHT22;9581;49.484;8.556;2023-07-16T06:56:32;20.90;99.90
18898;DHT22;9581;49.484;8.556;2023-07-16T06:58:59;21.10;99.90
18898;DHT22;9581;49.484;8.556;2023-07-16T07:01:26;20.90;99.90
18898;DHT22;9581;49.484;8.556;2023-07-16T07:03:53;21.00;99.90
18898;DHT22;9581;49.484;8.556;2023-07-16T07:06:20;21.00;99.90
18898;DHT22;9581;49.484;8.556;2023-07-16T07:08:47;20.80;99.90
18898;DHT22;9581;49.484;8.556;2023-07-16T07:11:14;20.70;99.90
18898;DHT22;9581;49.484;8.556;2023-07-16T07:13:42;21.10;99.90
18898;DHT22;9581;49.484;8.556;2023-07-16T07:16:08;21.30;99.90
18898;DHT22;9581;49.484;8.556;2023-07-16T07:18:35;21.40;99.90
18898;DHT22;9581;49.484;8.556;2023-07-16T07:21:02;21.50;99.90
18898;DHT22;9581;49.484;8.556;2023-07-16T07:23:29;21.70;99.90
18898;DHT22;9581;49.484;8.556;2023-07-16T07:25:55;21.60;99.90
18898;DHT22;9581;49.484;8.556;2023-07-16T07:28:22;21.40;99.90
18898;DHT22;9581;49.484;8.556;2023-07-16T07:30:50;21.20;99.90
18898;DHT22;9581;49.484;8.556;2023-07-16T07:33:17;21.30;99.90
18898;DHT22;9581;49.484;8.556;2023-07-16T07:35:44;21.20;99.90
18898;DHT22;9581;49.484;8.556;2023-07-16T07:38:11;21.20;99.90
18898;DHT22;9581;49.484;8.556;2023-07-16T07:40:38;21.70;99.90
18898;DHT22;9581;49.484;8.556;2023-07-16T07:43:04;21.90;99.90
18898;DHT22;9581;49.484;8.556;2023-07-16T07:45:31;21.70;99.90
18898;DHT22;9581;49.484;8.556;2023-07-16T07:47:59;21.80;99.90
18898;DHT22;9581;49.484;8.556;2023-07-16T07:50:26;22.60;99.90
18898;DHT22;9581;49.484;8.556;2023-07-16T07:52:54;22.60;99.90
18898;DHT22;9581;49.484;8.556;2023-07-16T07:55:21;22.30;99.90
18898;DHT22;9581;49.484;8.556;2023-07-16T07:57:48;22.20;99.90
18898;DHT22;9581;49.484;8.556;2023-07-16T08:00:15;23.50;99.90
18898;DHT22;9581;49.484;8.556;2023-07-16T08:02:42;27.30;99.90
18898;DHT22;9581;49.484;8.556;2023-07-16T08:05:10;26.60;99.90
18898;DHT22;9581;49.484;8.556;2023-07-16T08:07:36;25.60;99.90
18898;DHT22;9581;49.484;8.556;2023-07-16T08:10:04;24.20;99.90
18898;DHT22;9581;49.484;8.556;2023-07-16T08:12:31;23.70;99.90
18898;DHT22;9581;49.484;8.556;2023-07-16T08:14:58;22.80;99.90
18898;DHT22;9581;49.484;8.556;2023-07-16T08:17:24;25.20;99.90
18898;DHT22;9581;49.484;8.556;2023-07-16T08:19:51;26.60;99.90
18898;DHT22;9581;49.484;8.556;2023-07-16T08:22:19;29.20;99.90
18898;DHT22;9581;49.484;8.556;2023-07-16T08:24:46;25.90;99.90
18898;DHT22;9581;49.484;8.556;2023-07-16T08:27:13;24.70;99.90
18898;DHT22;9581;49.484;8.556;2023-07-16T08:29:39;24.00;99.90
18898;DHT22;9581;49.484;8.556;2023-07-16T08:32:07;23.60;99.90
18898;DHT22;9581;49.484;8.556;2023-07-16T08:34:34;23.00;99.90
18898;DHT22;9581;49.484;8.556;2023-07-16T08:37:00;22.70;99.90
18898;DHT22;9581;49.484;8.556;2023-07-16T08:39:29;22.80;99.90
18898;DHT22;9581;49.484;8.556;2023-07-16T08:41:55;23.80;99.90
18898;DHT22;9581;49.484;8.556;2023-07-16T08:44:23;24.40;99.90
18898;DHT22;9581;49.484;8.556;2023-07-16T08:46:50;24.70;99.90
18898;DHT22;9581;49.484;8.556;2023-07-16T08:49:18;26.70;99.90
18898;DHT22;9581;49.484;8.556;2023-07-16T08:51:47;25.90;99.90
18898;DHT22;9581;49.484;8.556;2023-07-16T08:54:15;27.00;99.90
18898;DHT22;9581;49.484;8.556;2023-07-16T08:56:44;27.90;99.90
18898;DHT22;9581;49.484;8.556;2023-07-16T08:59:12;24.50;99.90
18898;DHT22;9581;49.484;8.556;2023-07-16T09:01:39;25.70;99.90
18898;DHT22;9581;49.484;8.556;2023-07-16T09:04:06;25.40;99.90
18898;DHT22;9581;49.484;8.556;2023-07-16T09:06:33;24.50;99.90
18898;DHT22;9581;49.484;8.556;2023-07-16T09:09:00;24.10;99.90
18898;DHT22;9581;49.484;8.556;2023-07-16T09:11:27;25.60;99.90
18898;DHT22;9581;49.484;8.556;2023-07-16T09:13:55;25.80;99.90
18898;DHT22;9581;49.484;8.556;2023-07-16T09:16:22;25.30;99.90
18898;DHT22;9581;49.484;8.556;2023-07-16T09:18:49;25.60;99.90
18898;DHT22;9581;49.484;8.556;2023-07-16T09:21:16;27.00;99.90
18898;DHT22;9581;49.484;8.556;2023-07-16T09:23:44;29.60;99.90
18898;DHT22;9581;49.484;8.556;2023-07-16T09:26:11;30.10;99.90
18898;DHT22;9581;49.484;8.556;2023-07-16T09:28:37;30.50;98.80
18898;DHT22;9581;49.484;8.556;2023-07-16T09:31:07;32.00;96.60
18898;DHT22;9581;49.484;8.556;2023-07-16T09:33:34;32.60;95.80
18898;DHT22;9581;49.484;8.556;2023-07-16T09:36:03;31.80;94.40
18898;DHT22;9581;49.484;8.556;2023-07-16T09:38:30;31.90;93.30
18898;DHT22;9581;49.484;8.556;2023-07-16T09:40:59;32.50;92.10
18898;DHT22;9581;49.484;8.556;2023-07-16T09:43:26;31.70;91.60
18898;DHT22;9581;49.484;8.556;2023-07-16T09:45:52;28.70;94.50
18898;DHT22;9581;49.484;8.556;2023-07-16T09:48:20;27.10;95.50
18898;DHT22;9581;49.484;8.556;2023-07-16T09:50:51;26.20;97.60
18898;DHT22;9581;49.484;8.556;2023-07-16T09:53:19;25.50;98.60
18898;DHT22;9581;49.484;8.556;2023-07-16T09:55:48;25.70;98.50
18898;DHT22;9581;49.484;8.556;2023-07-16T09:58:18;25.40;98.70
18898;DHT22;9581;49.484;8.556;2023-07-16T10:00:46;25.30;97.50
18898;DHT22;9581;49.484;8.556;2023-07-16T10:03:15;25.30;99.10
18898;DHT22;9581;49.484;8.556;2023-07-16T10:05:43;25.20;97.40
18898;DHT22;9581;49.484;8.556;2023-07-16T10:08:17;25.20;98.50
18898;DHT22;9581;49.484;8.556;2023-07-16T10:10:46;25.10;99.10
18898;DHT22;9581;49.484;8.556;2023-07-16T10:13:14;25.10;98.80
18898;DHT22;9581;49.484;8.556;2023-07-16T10:15:51;25.10;99.00
18898;DHT22;9581;49.484;8.556;2023-07-16T10:18:26;25.30;99.90
18898;DHT22;9581;49.484;8.556;2023-07-16T10:21:04;25.00;99.60
18898;DHT22;9581;49.484;8.556;2023-07-16T10:23:39;25.20;97.90
18898;DHT22;9581;49.484;8.556;2023-07-16T10:26:08;25.30;98.20
18898;DHT22;9581;49.484;8.556;2023-07-16T10:28:36;25.30;98.30
18898;DHT22;9581;49.484;8.556;2023-07-16T10:31:03;25.20;98.40
18898;DHT22;9581;49.484;8.556;2023-07-16T10:33:30;24.90;99.60
18898;DHT22;9581;49.484;8.556;2023-07-16T10:35:59;25.40;99.00
18898;DHT22;9581;49.484;8.556;2023-07-16T10:38:27;25.60;98.60
18898;DHT22;9581;49.484;8.556;2023-07-16T10:40:55;25.80;99.70
18898;DHT22;9581;49.484;8.556;2023-07-16T10:43:25;25.60;98.20
18898;DHT22;9581;49.484;8.556;2023-07-16T10:45:52;25.50;98.60
18898;DHT22;9581;49.484;8.556;2023-07-16T10:48:24;25.20;97.40
18898;DHT22;9581;49.484;8.556;2023-07-16T10:50:53;25.00;97.50
18898;DHT22;9581;49.484;8.556;2023-07-16T10:53:20;24.80;96.70
18898;DHT22;9581;49.484;8.556;2023-07-16T10:55:48;24.60;96.80
18898;DHT22;9581;49.484;8.556;2023-07-16T10:58:16;24.90;97.20
18898;DHT22;9581;49.484;8.556;2023-07-16T11:00:42;25.00;97.40
18898;DHT22;9581;49.484;8.556;2023-07-16T11:03:14;25.20;97.50
18898;DHT22;9581;49.484;8.556;2023-07-16T11:05:41;25.60;97.70
18898;DHT22;9581;49.484;8.556;2023-07-16T11:08:08;25.80;96.30
18898;DHT22;9581;49.484;8.556;2023-07-16T11:10:35;25.80;97.10
18898;DHT22;9581;49.484;8.556;2023-07-16T11:13:03;25.90;96.10
18898;DHT22;9581;49.484;8.556;2023-07-16T11:15:31;25.90;96.10
18898;DHT22;9581;49.484;8.556;2023-07-16T11:17:58;25.60;96.30
18898;DHT22;9581;49.484;8.556;2023-07-16T11:20:25;25.40;96.60
18898;DHT22;9581;49.484;8.556;2023-07-16T11:22:52;25.90;95.90
18898;DHT22;9581;49.484;8.556;2023-07-16T11:25:19;26.00;95.00
18898;DHT22;9581;49.484;8.556;2023-07-16T11:27:47;26.10;94.40
18898;DHT22;9581;49.484;8.556;2023-07-16T11:30:15;26.10;94.50
18898;DHT22;9581;49.484;8.556;2023-07-16T11:32:45;26.10;94.40
18898;DHT22;9581;49.484;8.556;2023-07-16T11:35:16;26.20;93.40
18898;DHT22;9581;49.484;8.556;2023-07-16T11:37:44;26.50;94.00
18898;DHT22;9581;49.484;8.556;2023-07-16T11:40:15;26.30;94.40
18898;DHT22;9581;49.484;8.556;2023-07-16T11:42:42;26.50;94.30
18898;DHT22;9581;49.484;8.556;2023-07-16T11:45:17;26.30;94.40
18898;DHT22;9581;49.484;8.556;2023-07-16T11:47:45;26.00;94.90
18898;DHT22;9581;49.484;8.556;2023-07-16T11:50:12;25.90;94.60
18898;DHT22;9581;49.484;8.556;2023-07-16T11:52:39;25.70;94.80
18898;DHT22;9581;49.484;8.556;2023-07-16T11:55:07;26.00;96.10
18898;DHT22;9581;49.484;8.556;2023-07-16T11:57:34;26.30;94.00
18898;DHT22;9581;49.484;8.556;2023-07-16T12:00:01;26.20;94.00
18898;DHT22;9581;49.484;8.556;2023-07-16T12:02:30;26.50;93.20
18898;DHT22;9581;49.484;8.556;2023-07-16T12:04:57;26.70;93.90
18898;DHT22;9581;49.484;8.556;2023-07-16T12:07:35;26.80;93.00
18898;DHT22;9581;49.484;8.556;2023-07-16T12:10:03;26.60;92.20
18898;DHT22;9581;49.484;8.556;2023-07-16T12:12:31;26.60;92.30
18898;DHT22;9581;49.484;8.556;2023-07-16T12:14:58;26.80;92.00
18898;DHT22;9581;49.484;8.556;2023-07-16T12:17:25;27.00;92.30
18898;DHT22;9581;49.484;8.556;2023-07-16T12:19:53;26.90;91.50
18898;DHT22;9581;49.484;8.556;2023-07-16T12:22:20;26.90;92.20
18898;DHT22;9581;49.484;8.556;2023-07-16T12:24:47;26.80;91.90
18898;DHT22;9581;49.484;8.556;2023-07-16T12:27:14;27.20;91.50
18898;DHT22;9581;49.484;8.556;2023-07-16T12:29:41;27.10;92.30
18898;DHT22;9581;49.484;8.556;2023-07-16T12:32:09;26.80;92.80
18898;DHT22;9581;49.484;8.556;2023-07-16T12:34:36;26.50;92.00
18898;DHT22;9581;49.484;8.556;2023-07-16T12:37:05;26.30;92.60
18898;DHT22;9581;49.484;8.556;2023-07-16T12:39:32;26.30;92.20
18898;DHT22;9581;49.484;8.556;2023-07-16T12:41:59;26.30;91.80
18898;DHT22;9581;49.484;8.556;2023-07-16T12:44:25;26.70;92.30
18898;DHT22;9581;49.484;8.556;2023-07-16T12:46:52;27.10;91.20
18898;DHT22;9581;49.484;8.556;2023-07-16T12:49:19;27.00;92.90
18898;DHT22;9581;49.484;8.556;2023-07-16T12:51:46;27.10;91.40
18898;DHT22;9581;49.484;8.556;2023-07-16T12:54:14;26.80;90.70
18898;DHT22;9581;49.484;8.556;2023-07-16T12:56:41;27.00;91.50
18898;DHT22;9581;49.484;8.556;2023-07-16T12:59:08;27.10;91.10
18898;DHT22;9581;49.484;8.556;2023-07-16T13:01:34;27.10;90.90
18898;DHT22;9581;49.484;8.556;2023-07-16T13:04:01;27.30;90.90
18898;DHT22;9581;49.484;8.556;2023-07-16T13:06:28;27.50;91.10
18898;DHT22;9581;49.484;8.556;2023-07-16T13:08:55;27.20;90.70
18898;DHT22;9581;49.484;8.556;2023-07-16T13:11:24;27.50;91.90
18898;DHT22;9581;49.484;8.556;2023-07-16T13:13:51;27.70;92.40
18898;DHT22;9581;49.484;8.556;2023-07-16T13:16:18;27.90;92.30
18898;DHT22;9581;49.484;8.556;2023-07-16T13:18:45;27.80;91.40
18898;DHT22;9581;49.484;8.556;2023-07-16T13:21:12;27.70;90.00
18898;DHT22;9581;49.484;8.556;2023-07-16T13:23:38;27.50;91.70
18898;DHT22;9581;49.484;8.556;2023-07-16T13:26:05;27.00;90.80
18898;DHT22;9581;49.484;8.556;2023-07-16T13:28:33;27.10;89.80
18898;DHT22;9581;49.484;8.556;2023-07-16T13:31:00;27.20;89.80
18898;DHT22;9581;49.484;8.556;2023-07-16T13:33:27;27.50;90.10
18898;DHT22;9581;49.484;8.556;2023-07-16T13:35:54;27.40;90.10
18898;DHT22;9581;49.484;8.556;2023-07-16T13:38:22;27.60;88.10
18898;DHT22;9581;49.484;8.556;2023-07-16T13:40:49;27.70;87.20
18898;DHT22;9581;49.484;8.556;2023-07-16T13:43:16;27.50;88.40
18898;DHT22;9581;49.484;8.556;2023-07-16T13:45:44;27.80;90.40
18898;DHT22;9581;49.484;8.556;2023-07-16T13:48:11;27.30;89.10
18898;DHT22;9581;49.484;8.556;2023-07-16T13:50:37;27.00;88.90
18898;DHT22;9581;49.484;8.556;2023-07-16T13:53:04;27.10;90.10
18898;DHT22;9581;49.484;8.556;2023-07-16T13:55:31;27.30;89.10
18898;DHT22;9581;49.484;8.556;2023-07-16T13:57:58;27.30;90.00
18898;DHT22;9581;49.484;8.556;2023-07-16T14:00:25;27.70;87.50
18898;DHT22;9581;49.484;8.556;2023-07-16T14:02:53;28.00;86.20
18898;DHT22;9581;49.484;8.556;2023-07-16T14:05:20;27.70;86.30
18898;DHT22;9581;49.484;8.556;2023-07-16T14:07:46;27.90;86.50
18898;DHT22;9581;49.484;8.556;2023-07-16T14:10:15;27.60;86.10
18898;DHT22;9581;49.484;8.556;2023-07-16T14:12:42;27.70;87.50
18898;DHT22;9581;49.484;8.556;2023-07-16T14:15:09;27.80;86.30
18898;DHT22;9581;49.484;8.556;2023-07-16T14:17:35;27.80;87.60
18898;DHT22;9581;49.484;8.556;2023-07-16T14:20:05;27.90;85.70
18898;DHT22;9581;49.484;8.556;2023-07-16T14:22:32;28.20;87.10
18898;DHT22;9581;49.484;8.556;2023-07-16T14:24:59;28.20;86.20
18898;DHT22;9581;49.484;8.556;2023-07-16T14:27:25;28.50;85.80
18898;DHT22;9581;49.484;8.556;2023-07-16T14:29:52;28.30;82.40
18898;DHT22;9581;49.484;8.556;2023-07-16T14:32:19;28.10;84.90
18898;DHT22;9581;49.484;8.556;2023-07-16T14:34:46;28.10;84.90
18898;DHT22;9581;49.484;8.556;2023-07-16T14:37:14;28.40;85.60
18898;DHT22;9581;49.484;8.556;2023-07-16T14:39:41;28.60;81.90
18898;DHT22;9581;49.484;8.556;2023-07-16T14:42:08;28.60;86.10
18898;DHT22;9581;49.484;8.556;2023-07-16T14:44:34;28.40;84.00
18898;DHT22;9581;49.484;8.556;2023-07-16T14:47:01;28.30;85.80
18898;DHT22;9581;49.484;8.556;2023-07-16T14:49:29;28.10;84.50
18898;DHT22;9581;49.484;8.556;2023-07-16T14:51:57;28.40;84.50
18898;DHT22;9581;49.484;8.556;2023-07-16T14:54:25;28.20;86.10
18898;DHT22;9581;49.484;8.556;2023-07-16T14:56:52;28.40;82.30
18898;DHT22;9581;49.484;8.556;2023-07-16T14:59:19;28.30;82.30
18898;DHT22;9581;49.484;8.556;2023-07-16T15:01:46;28.80;82.10
18898;DHT22;9581;49.484;8.556;2023-07-16T15:04:14;29.50;80.10
18898;DHT22;9581;49.484;8.556;2023-07-16T15:06:41;29.00;81.00
18898;DHT22;9581;49.484;8.556;2023-07-16T15:09:08;29.20;84.20
18898;DHT22;9581;49.484;8.556;2023-07-16T15:11:36;30.30;81.10
18898;DHT22;9581;49.484;8.556;2023-07-16T15:14:03;29.80;81.30
18898;DHT22;9581;49.484;8.556;2023-07-16T15:16:30;29.70;82.80
18898;DHT22;9581;49.484;8.556;2023-07-16T15:18:57;31.10;78.00
18898;DHT22;9581;49.484;8.556;2023-07-16T15:21:25;31.10;77.60
18898;DHT22;9581;49.484;8.556;2023-07-16T15:23:52;30.10;80.80
18898;DHT22;9581;49.484;8.556;2023-07-16T15:26:18;30.50;76.70
18898;DHT22;9581;49.484;8.556;2023-07-16T15:28:47;30.70;76.20
18898;DHT22;9581;49.484;8.556;2023-07-16T15:31:13;31.80;74.30
18898;DHT22;9581;49.484;8.556;2023-07-16T15:33:40;32.10;72.70
18898;DHT22;9581;49.484;8.556;2023-07-16T15:36:07;32.10;73.50
18898;DHT22;9581;49.484;8.556;2023-07-16T15:38:34;29.70;75.20
18898;DHT22;9581;49.484;8.556;2023-07-16T15:41:01;30.20;75.50
18898;DHT22;9581;49.484;8.556;2023-07-16T15:43:28;29.80;75.50
18898;DHT22;9581;49.484;8.556;2023-07-16T15:45:56;29.30;76.30
18898;DHT22;9581;49.484;8.556;2023-07-16T15:48:23;29.30;76.50